메인 페이지
METAR-TAF:

METAR-TAF

공항 :

탐피코, 멕시코

위도: 22-17N, 경도: 097-52W, 고도: 24m

현재 날씨관측

예보는 44분 전, 03:44시(UTC)에 발표되었습니다.
12kt
온도 26°C
습도 79%
기압 1013 hPa
시정: 6.4km
고도 1000ft 상공 구름 많음
고도 1500ft 상공 구름 많음

METAR: MMTM 180344Z 09012KT 4SM BKN010 BKN015 26/22 A2990 RMK 8/800 HZY

시각: 23:28 (04:28 UTC)

예보

예보는 8 시간 5분 전, 20:23시(UTC)에 발표되었습니다.
예보 대상 시간: 17일 20시부터 18일 18시까지 (UTC)
북동12kt
시정: 3.2km
고도 500ft 상공 구름 보통
고도 1200ft 상공 구름 많음
연무
17일 2100시부터 (UTC)
동남동10kt, 순간 최대 풍속 20kt
시정: 6.4km
고도 1200ft 상공 구름 많음
연무
18일 0100시부터 (UTC)
10kt
시정: 6.4km
고도 1000ft 상공 구름 많음
연무
전환 중
18일 03시부터 18일 04시까지 (UTC)
시정: 3.2km
고도 500ft 상공 구름 많음
고도 1000ft 상공 흐림
박무, 연무
18일 1400시부터 (UTC)
5kt
시정: 6.4km
고도 1000ft 상공 구름 많음
고도 1500ft 상공 흐림
연무
18일 1600시부터 (UTC)
10kt
시정: 8.0km
고도 1500ft 상공 구름 많음
연무,

TAF: MMTM 172023Z 1720/1818 04012KT 2SM HZ SCT005 BKN012 FM172100 11010G20KT 4SM HZ BKN012 FM180100 10010KT 4SM HZ BKN010 BECMG 1803/1804 2SM BR HZ BKN005 OVC010 FM181400 10005KT 4SM HZ BKN010 OVC015 FM181600 10010KT 5SM HZ BKN015

4,000개 이상의 공항 관측 자료 및 예보 (METAR 및 TAF 보고).

지도상에서 검색 가능한 기상관측소가 노란 점과 빨간 점으로 표시되어 있습니다.

기상관측소 명을 보려면 표시 위로 마우스를 이동하세요.

날씨 관측과 예보를 보려면 클릭하세요.

지도 변경 : 확대하려면 엑스 표시가 있는 녹색 버튼, 축소하려면 빼기 표시가 있는 녹색 버튼, 다음 페이지의 지도를 보려면 녹색 화살표를 클릭하세요.


METAR-TAF: